Time,TemperatureF,DewpointF,PressureIn,WindDirection,WindDirectionDegrees,WindSpeedMPH,WindSpeedGustMPH,Humidity,HourlyPrecipIn,Conditions,Clouds,dailyrainin,SoftwareType,DateUTC
2013-02-19 00:00:00,66.9,53.9,30.17,SE,139,2.0,6.2,63,0.00,,OVC,0.00,WeatherDisplay:10.37,2013-02-19 05:00:00,
2013-02-19 00:01:00,67.1,54.1,30.17,SE,134,12.7,12.7,63,0.00,,OVC,0.00,WeatherDisplay:10.37,2013-02-19 05:01:00,
2013-02-19 00:07:00,66.9,53.9,30.17,SE,136,11.5,11.5,63,0.00,,OVC,0.00,WeatherDisplay:10.37,2013-02-19 05:07:00,
2013-02-19 00:12:00,66.9,53.9,30.17,SE,145,11.5,11.5,63,0.00,,OVC,0.00,WeatherDisplay:10.37,2013-02-19 05:12:00,
2013-02-19 00:17:00,66.9,53.5,30.16,SE,139,9.2,9.2,62,0.00,,OVC,0.00,WeatherDisplay:10.37,2013-02-19 05:17:00,
2013-02-19 00:22:00,66.8,53.4,30.16,SE,143,11.5,11.5,62,0.00,,OVC,0.00,WeatherDisplay:10.37,2013-02-19 05:22:00,
2013-02-19 00:27:00,66.6,53.2,30.16,SE,144,8.1,8.1,62,0.00,,OVC,0.00,WeatherDisplay:10.37,2013-02-19 05:27:00,
2013-02-19 00:32:00,66.6,53.6,30.16,SE,145,11.5,11.5,63,0.00,,OVC,0.00,WeatherDisplay:10.37,2013-02-19 05:32:00,
2013-02-19 00:37:00,66.6,53.6,30.16,SE,128,14.0,14.0,63,0.00,,OVC,0.00,WeatherDisplay:10.37,2013-02-19 05:37:00,
2013-02-19 00:42:00,66.4,53.8,30.16,SE,143,8.1,8.1,64,0.00,,OVC,0.00,WeatherDisplay:10.37,2013-02-19 05:42:00,
2013-02-19 00:47:00,66.4,53.8,30.15,SE,138,8.1,8.1,64,0.00,,OVC,0.00,WeatherDisplay:10.37,2013-02-19 05:47:00,
2013-02-19 00:52:00,66.4,54.3,30.15,SSE,147,5.0,5.0,65,0.00,,OVC,0.00,WeatherDisplay:10.37,2013-02-19 05:52:00,
2013-02-19 00:57:00,66.4,54.3,30.15,SE,132,17.3,17.3,65,0.00,,OVC,0.00,WeatherDisplay:10.37,2013-02-19 05:57:00,
2013-02-19 01:02:00,66.4,54.3,30.15,SSE,147,10.4,10.4,65,0.00,,OVC,0.00,WeatherDisplay:10.37,2013-02-19 06:02:00,
2013-02-19 01:07:00,66.6,54.5,30.15,SE,142,16.0,16.0,65,0.00,,OVC,0.00,WeatherDisplay:10.37,2013-02-19 06:07:00,
2013-02-19 01:12:00,66.6,54.5,30.15,SE,138,6.9,6.9,65,0.00,,OVC,0.00,WeatherDisplay:10.37,2013-02-19 06:12:00,
2013-02-19 01:17:00,66.4,54.3,30.15,SE,145,3.0,3.0,65,0.00,,OVC,0.00,WeatherDisplay:10.37,2013-02-19 06:17:00,
2013-02-19 01:22:00,66.3,54.2,30.15,SE,124,12.7,12.7,65,0.00,,OVC,0.00,WeatherDisplay:10.37,2013-02-19 06:22:00,
2013-02-19 01:27:00,66.3,54.2,30.15,SE,127,5.8,5.8,65,0.00,,OVC,0.00,WeatherDisplay:10.37,2013-02-19 06:27:00,
2013-02-19 01:32:00,66.3,54.2,30.15,ESE,112,2.0,2.0,65,0.00,,OVC,0.00,WeatherDisplay:10.37,2013-02-19 06:32:00,
2013-02-19 01:37:00,66.1,54.0,30.15,ESE,111,3.5,3.5,65,0.00,,OVC,0.00,WeatherDisplay:10.37,2013-02-19 06:37:00,
2013-02-19 01:42:00,66.3,54.2,30.15,SE,144,17.3,17.3,65,0.00,,OVC,0.00,WeatherDisplay:10.37,2013-02-19 06:42:00,
2013-02-19 01:47:00,66.4,54.7,30.15,SE,142,19.0,19.0,66,0.00,,OVC,0.00,WeatherDisplay:10.37,2013-02-19 06:47:00,
2013-02-19 01:52:00,66.6,54.9,30.15,SE,144,19.6,19.6,66,0.00,,OVC,0.00,WeatherDisplay:10.37,2013-02-19 06:52:00,
2013-02-19 01:57:00,66.6,54.9,30.15,SE,138,24.0,24.0,66,0.00,,OVC,0.00,WeatherDisplay:10.37,2013-02-19 06:57:00,
2013-02-19 02:02:00,66.8,55.1,30.14,ESE,102,18.4,18.4,66,0.00,,OVC,0.00,WeatherDisplay:10.37,2013-02-19 07:02:00,
2013-02-19 02:07:00,66.8,55.1,30.14,SE,134,9.2,9.2,66,0.00,,OVC,0.00,WeatherDisplay:10.37,2013-02-19 07:07:00,
2013-02-19 02:12:00,66.6,54.9,30.14,SE,140,17.3,17.3,66,0.00,,OVC,0.00,WeatherDisplay:10.37,2013-02-19 07:12:00,
2013-02-19 02:17:00,66.4,55.1,30.14,SE,144,10.4,10.4,67,0.00,,OVC,0.00,WeatherDisplay:10.37,2013-02-19 07:17:00,
2013-02-19 02:22:00,66.3,55.0,30.14,SE,132,13.8,13.8,67,0.00,,OVC,0.00,WeatherDisplay:10.37,2013-02-19 07:22:00,
2013-02-19 02:27:00,66.1,54.8,30.14,SE,128,6.0,6.0,67,0.00,,OVC,0.00,WeatherDisplay:10.37,2013-02-19 07:27:00,
2013-02-19 02:32:00,66.0,54.7,30.13,SE,139,21.9,21.9,67,0.00,,OVC,0.00,WeatherDisplay:10.37,2013-02-19 07:32:00,
2013-02-19 02:37:00,66.1,54.4,30.13,SE,134,9.2,9.2,66,0.00,,OVC,0.00,WeatherDisplay:10.37,2013-02-19 07:37:00,
2013-02-19 02:42:00,66.1,54.4,30.13,SE,132,9.2,9.2,66,0.00,,OVC,0.00,WeatherDisplay:10.37,2013-02-19 07:42:00,
2013-02-19 02:47:00,66.1,54.4,30.13,SE,134,8.1,8.1,66,0.00,,OVC,0.00,WeatherDisplay:10.37,2013-02-19 07:47:00,
2013-02-19 02:52:00,66.3,54.2,30.13,SE,135,3.5,3.5,65,0.00,,OVC,0.00,WeatherDisplay:10.37,2013-02-19 07:52:00,
2013-02-19 02:57:00,66.3,54.2,30.13,SE,136,0.0,0.0,65,0.00,,OVC,0.00,WeatherDisplay:10.37,2013-02-19 07:57:00,
2013-02-19 03:02:00,66.3,54.2,30.13,SE,134,0.0,0.0,65,0.00,,OVC,0.00,WeatherDisplay:10.37,2013-02-19 08:02:00,
2013-02-19 03:07:00,66.3,54.2,30.13,SE,134,6.9,6.9,65,0.00,,OVC,0.00,WeatherDisplay:10.37,2013-02-19 08:07:00,
2013-02-19 03:12:00,66.3,54.2,30.13,SE,133,10.4,10.4,65,0.00,,OVC,0.00,WeatherDisplay:10.37,2013-02-19 08:12:00,
2013-02-19 03:17:00,66.3,53.8,30.12,SE,136,10.4,10.4,64,0.00,,OVC,0.00,WeatherDisplay:10.37,2013-02-19 08:17:00,
2013-02-19 03:22:00,66.3,53.8,30.12,SE,143,1.0,2.8,64,0.00,,OVC,0.00,WeatherDisplay:10.37,2013-02-19 08:22:00,
2013-02-19 03:27:00,66.1,54.0,30.12,SE,140,0.0,0.0,65,0.00,,OVC,0.00,WeatherDisplay:10.37,2013-02-19 08:27:00,
2013-02-19 03:32:00,66.0,53.9,30.12,SE,141,3.5,0.0,65,0.00,,OVC,0.00,WeatherDisplay:10.37,2013-02-19 08:32:00,
2013-02-19 03:37:00,65.8,54.1,30.12,SE,144,17.3,0.0,66,0.00,,OVC,0.00,WeatherDisplay:10.37,2013-02-19 08:37:00,
2013-02-19 03:42:00,65.6,53.9,30.12,SE,140,0.0,0.0,66,0.00,,OVC,0.00,WeatherDisplay:10.37,2013-02-19 08:42:00,
2013-02-19 03:47:00,65.5,53.8,30.12,SE,139,3.5,0.0,66,0.00,,OVC,0.00,WeatherDisplay:10.37,2013-02-19 08:47:00,
2013-02-19 03:52:00,65.3,54.1,30.12,SE,139,0.0,0.0,67,0.00,,OVC,0.00,WeatherDisplay:10.37,2013-02-19 08:52:00,
2013-02-19 03:57:00,65.0,53.8,30.12,SE,139,0.0,0.0,67,0.00,,OVC,0.00,WeatherDisplay:10.37,2013-02-19 08:57:00,
2013-02-19 04:03:00,65.0,53.8,30.12,SE,139,0.0,0.0,67,0.00,,OVC,0.00,WeatherDisplay:10.37,2013-02-19 09:03:00,
2013-02-19 04:08:00,64.8,54.0,30.12,SE,138,0.0,0.0,68,0.00,,OVC,0.00,WeatherDisplay:10.37,2013-02-19 09:08:00,
2013-02-19 04:13:00,64.8,54.0,30.12,SE,139,10.4,10.4,68,0.00,,OVC,0.00,WeatherDisplay:10.37,2013-02-19 09:13:00,
2013-02-19 04:18:00,65.0,54.2,30.12,SE,140,0.0,0.0,68,0.00,,OVC,0.00,WeatherDisplay:10.37,2013-02-19 09:18:00,
2013-02-19 04:23:00,64.8,54.0,30.12,SE,139,0.0,0.0,68,0.00,,OVC,0.00,WeatherDisplay:10.37,2013-02-19 09:23:00,
2013-02-19 04:28:00,64.8,54.0,30.12,SE,141,0.0,0.0,68,0.00,,OVC,0.00,WeatherDisplay:10.37,2013-02-19 09:28:00,
2013-02-19 04:33:00,64.7,53.9,30.11,SE,140,0.0,0.0,68,0.00,,OVC,0.00,WeatherDisplay:10.37,2013-02-19 09:33:00,
2013-02-19 04:38:00,64.8,54.4,30.11,SE,140,0.0,0.0,69,0.00,,OVC,0.00,WeatherDisplay:10.37,2013-02-19 09:38:00,
2013-02-19 04:43:00,65.0,54.2,30.11,SE,138,11.5,11.5,68,0.00,,OVC,0.00,WeatherDisplay:10.37,2013-02-19 09:43:00,
2013-02-19 04:48:00,65.0,54.2,30.11,SE,135,0.0,0.0,68,0.00,,OVC,0.00,WeatherDisplay:10.37,2013-02-19 09:48:00,
2013-02-19 04:53:00,65.0,54.2,30.11,SE,140,3.5,3.5,68,0.00,,OVC,0.00,WeatherDisplay:10.37,2013-02-19 09:53:00,
2013-02-19 04:58:00,65.2,54.4,30.11,SE,140,0.0,0.0,68,0.00,,OVC,0.00,WeatherDisplay:10.37,2013-02-19 09:58:00,
2013-02-19 05:03:00,64.8,54.0,30.12,SE,140,0.0,0.0,68,0.00,,OVC,0.00,WeatherDisplay:10.37,2013-02-19 10:03:00,
2013-02-19 05:08:00,64.7,53.9,30.12,SE,140,0.0,0.0,68,0.00,,OVC,0.00,WeatherDisplay:10.37,2013-02-19 10:08:00,
2013-02-19 05:13:00,64.3,53.9,30.12,SE,140,0.0,0.0,69,0.00,,OVC,0.00,WeatherDisplay:10.37,2013-02-19 10:13:00,
2013-02-19 05:18:00,64.2,53.8,30.12,SE,140,0.0,0.0,69,0.00,,OVC,0.00,WeatherDisplay:10.37,2013-02-19 10:18:00,
2013-02-19 05:23:00,64.0,53.6,30.12,SE,140,0.0,0.0,69,0.00,,OVC,0.00,WeatherDisplay:10.37,2013-02-19 10:23:00,
2013-02-19 05:28:00,63.7,53.3,30.12,SE,140,0.0,0.0,69,0.00,,OVC,0.00,WeatherDisplay:10.37,2013-02-19 10:28:00,
2013-02-19 05:33:00,63.4,53.4,30.12,SE,140,0.0,0.0,70,0.00,,OVC,0.00,WeatherDisplay:10.37,2013-02-19 10:33:00,
2013-02-19 05:38:00,63.2,53.3,30.12,SE,140,0.0,0.0,70,0.00,,OVC,0.00,WeatherDisplay:10.37,2013-02-19 10:38:00,
2013-02-19 05:43:00,62.9,53.0,30.12,SE,140,0.0,0.0,70,0.00,,OVC,0.00,WeatherDisplay:10.37,2013-02-19 10:43:00,
2013-02-19 05:48:00,62.6,53.1,30.12,SE,140,0.0,0.0,71,0.00,,OVC,0.00,WeatherDisplay:10.37,2013-02-19 10:48:00,
2013-02-19 05:53:00,62.3,53.2,30.12,SE,140,0.0,0.0,72,0.00,,OVC,0.00,WeatherDisplay:10.37,2013-02-19 10:53:00,
2013-02-19 05:58:00,62.0,52.9,30.12,SE,140,0.0,0.0,72,0.00,,OVC,0.00,WeatherDisplay:10.37,2013-02-19 10:58:00,
2013-02-19 06:03:00,61.6,52.9,30.13,SE,140,0.0,0.0,73,0.00,,OVC,0.00,WeatherDisplay:10.37,2013-02-19 11:03:00,
2013-02-19 06:08:00,61.3,52.9,30.13,SE,140,0.0,0.0,74,0.00,,OVC,0.00,WeatherDisplay:10.37,2013-02-19 11:08:00,
2013-02-19 06:13:00,61.0,53.4,30.13,SE,140,0.0,0.0,76,0.00,,OVC,0.00,WeatherDisplay:10.37,2013-02-19 11:13:00,
2013-02-19 06:18:00,60.7,53.4,30.13,SE,140,0.0,0.0,77,0.00,,OVC,0.00,WeatherDisplay:10.37,2013-02-19 11:18:00,
2013-02-19 06:23:00,60.4,53.2,30.13,SE,140,0.0,0.0,77,0.00,,OVC,0.00,WeatherDisplay:10.37,2013-02-19 11:23:00,
2013-02-19 06:28:00,60.1,53.2,30.13,SE,140,0.0,0.0,78,0.00,,OVC,0.00,WeatherDisplay:10.37,2013-02-19 11:28:00,
2013-02-19 06:33:00,59.8,53.3,30.14,SE,140,0.0,0.0,79,0.00,,OVC,0.00,WeatherDisplay:10.37,2013-02-19 11:33:00,
2013-02-19 06:38:00,59.5,53.3,30.14,SE,140,0.0,0.0,80,0.00,,OVC,0.00,WeatherDisplay:10.37,2013-02-19 11:38:00,
2013-02-19 06:43:00,59.3,53.5,30.14,SE,140,0.0,0.0,81,0.00,,OVC,0.00,WeatherDisplay:10.37,2013-02-19 11:43:00,
2013-02-19 06:48:00,59.2,53.4,30.14,SE,140,0.0,0.0,81,0.00,,OVC,0.00,WeatherDisplay:10.37,2013-02-19 11:48:00,
2013-02-19 06:53:00,59.2,53.4,30.14,SE,140,0.0,0.0,81,0.00,,OVC,0.00,WeatherDisplay:10.37,2013-02-19 11:53:00,
2013-02-19 06:58:00,59.0,53.5,30.15,SE,140,0.0,0.0,82,0.00,,OVC,0.00,WeatherDisplay:10.37,2013-02-19 11:58:00,
2013-02-19 07:03:00,58.9,53.4,30.15,SE,140,0.0,0.0,82,0.00,,OVC,0.00,WeatherDisplay:10.37,2013-02-19 12:03:00,
2013-02-19 07:08:00,58.7,53.5,30.15,SE,140,0.0,0.0,83,0.00,,OVC,0.00,WeatherDisplay:10.37,2013-02-19 12:08:00,
2013-02-19 07:13:00,58.6,53.5,30.14,SE,140,0.0,0.0,83,0.00,,OVC,0.00,WeatherDisplay:10.37,2013-02-19 12:13:00,
2013-02-19 07:18:00,58.6,53.8,30.14,SE,140,0.0,0.0,84,0.00,,OVC,0.00,WeatherDisplay:10.37,2013-02-19 12:18:00,
2013-02-19 07:23:00,58.6,53.8,30.14,SE,140,0.0,0.0,84,0.00,,OVC,0.00,WeatherDisplay:10.37,2013-02-19 12:23:00,
2013-02-19 07:28:00,58.7,53.9,30.15,SE,140,0.0,0.0,84,0.00,,OVC,0.00,WeatherDisplay:10.37,2013-02-19 12:28:00,
2013-02-19 07:33:00,59.2,54.7,30.15,SE,140,0.0,0.0,85,0.00,,OVC,0.00,WeatherDisplay:10.37,2013-02-19 12:33:00,
2013-02-19 07:38:00,59.6,55.1,30.15,SE,140,0.0,0.0,85,0.00,,OVC,0.00,WeatherDisplay:10.37,2013-02-19 12:38:00,
2013-02-19 07:43:00,59.9,55.4,30.15,SE,140,0.0,0.0,85,0.00,,OVC,0.00,WeatherDisplay:10.37,2013-02-19 12:43:00,
2013-02-19 07:48:00,60.2,55.7,30.15,SE,140,0.0,0.0,85,0.00,,OVC,0.00,WeatherDisplay:10.37,2013-02-19 12:48:00,
2013-02-19 07:53:00,60.7,56.2,30.15,SE,140,0.0,0.0,85,0.00,,OVC,0.00,WeatherDisplay:10.37,2013-02-19 12:53:00,
2013-02-19 07:58:00,61.0,56.5,30.15,SE,140,0.0,0.0,85,0.00,,OVC,0.00,WeatherDisplay:10.37,2013-02-19 12:58:00,
2013-02-19 08:03:00,61.5,56.9,30.15,SE,140,0.0,0.0,85,0.00,,OVC,0.00,WeatherDisplay:10.37,2013-02-19 13:03:00,
2013-02-19 08:08:00,62.1,57.5,30.15,SE,140,0.0,0.0,85,0.00,,OVC,0.00,WeatherDisplay:10.37,2013-02-19 13:08:00,
2013-02-19 08:13:00,62.9,58.3,30.15,SE,140,0.0,0.0,85,0.00,,OVC,0.00,WeatherDisplay:10.37,2013-02-19 13:13:00,
2013-02-19 08:18:00,64.7,59.1,30.15,SE,139,0.0,0.0,82,0.00,,OVC,0.00,WeatherDisplay:10.37,2013-02-19 13:18:00,
2013-02-19 08:23:00,66.0,59.3,30.15,SE,137,0.0,0.0,79,0.00,,OVC,0.00,WeatherDisplay:10.37,2013-02-19 13:23:00,
2013-02-19 08:28:00,66.9,59.5,30.15,SE,136,0.0,0.0,77,0.00,,OVC,0.00,WeatherDisplay:10.37,2013-02-19 13:28:00,
2013-02-19 08:33:00,68.3,59.7,30.15,ESE,123,0.0,0.0,74,0.00,,OVC,0.00,WeatherDisplay:10.37,2013-02-19 13:33:00,
2013-02-19 08:38:00,69.4,59.6,30.15,SE,144,9.2,0.0,71,0.00,,OVC,0.00,WeatherDisplay:10.37,2013-02-19 13:38:00,
2013-02-19 08:43:00,70.1,59.5,30.15,SE,139,19.6,19.6,69,0.00,,OVC,0.00,WeatherDisplay:10.37,2013-02-19 13:43:00,
2013-02-19 08:48:00,70.8,59.7,30.15,SE,136,16.1,16.1,68,0.00,,OVC,0.00,WeatherDisplay:10.37,2013-02-19 13:48:00,
2013-02-19 08:54:00,71.3,59.4,30.15,SSE,160,21.9,21.9,66,0.00,,OVC,0.00,WeatherDisplay:10.37,2013-02-19 13:54:00,
2013-02-19 08:59:00,71.6,59.2,30.15,SSE,159,18.4,18.4,65,0.00,,OVC,0.00,WeatherDisplay:10.37,2013-02-19 13:59:00,
2013-02-19 09:04:00,71.8,59.0,30.15,SSE,153,21.9,21.9,64,0.00,,OVC,0.00,WeatherDisplay:10.37,2013-02-19 14:04:00,
2013-02-19 09:09:00,72.1,59.2,30.15,SE,133,11.5,11.5,64,0.00,,OVC,0.00,WeatherDisplay:10.37,2013-02-19 14:09:00,
2013-02-19 09:14:00,72.3,59.0,30.15,SE,126,18.4,18.4,63,0.00,,OVC,0.00,WeatherDisplay:10.37,2013-02-19 14:14:00,
2013-02-19 09:19:00,72.5,59.6,30.15,SE,140,0.0,0.0,64,0.00,,OVC,0.00,WeatherDisplay:10.37,2013-02-19 14:19:00,
2013-02-19 09:24:00,73.0,59.7,30.15,ESE,123,18.4,18.4,63,0.00,,OVC,0.00,WeatherDisplay:10.37,2013-02-19 14:24:00,
2013-02-19 09:29:00,73.2,59.4,30.16,SSE,148,23.0,23.0,62,0.00,,OVC,0.00,WeatherDisplay:10.37,2013-02-19 14:29:00,
2013-02-19 09:34:00,73.0,59.2,30.16,SE,146,17.3,17.3,62,0.00,,OVC,0.00,WeatherDisplay:10.37,2013-02-19 14:34:00,
2013-02-19 09:39:00,73.2,59.4,30.16,SE,136,26.5,26.5,62,0.00,,OVC,0.00,WeatherDisplay:10.37,2013-02-19 14:39:00,
2013-02-19 09:44:00,73.3,59.0,30.15,SE,131,18.4,18.4,61,0.00,,OVC,0.00,WeatherDisplay:10.37,2013-02-19 14:44:00,
2013-02-19 09:49:00,72.8,59.0,30.15,SE,142,21.9,21.9,62,0.00,,OVC,0.00,WeatherDisplay:10.37,2013-02-19 14:49:00,
2013-02-19 09:54:00,73.0,58.8,30.15,South,185,24.2,24.2,61,0.00,,OVC,0.00,WeatherDisplay:10.37,2013-02-19 14:54:00,
2013-02-19 09:59:00,73.9,59.6,30.15,SE,130,10.4,10.4,61,0.00,,OVC,0.00,WeatherDisplay:10.37,2013-02-19 14:59:00,
2013-02-19 10:04:00,74.2,59.9,30.15,SE,130,2.3,0.0,61,0.00,,OVC,0.00,WeatherDisplay:10.37,2013-02-19 15:04:00,
2013-02-19 10:09:00,73.7,58.9,30.15,SSE,153,29.9,29.9,60,0.00,,OVC,0.00,WeatherDisplay:10.37,2013-02-19 15:09:00,
2013-02-19 10:14:00,73.3,59.5,30.15,SSW,211,28.8,28.8,62,0.00,,OVC,0.00,WeatherDisplay:10.37,2013-02-19 15:14:00,
2013-02-19 10:19:00,74.0,60.2,30.15,SE,137,26.5,26.5,62,0.00,,OVC,0.00,WeatherDisplay:10.37,2013-02-19 15:19:00,
2013-02-19 10:24:00,74.6,60.3,30.15,ESE,106,15.0,15.0,61,0.00,,OVC,0.00,WeatherDisplay:10.37,2013-02-19 15:24:00,
2013-02-19 10:29:00,74.6,59.8,30.15,SSE,155,18.4,18.4,60,0.00,,OVC,0.00,WeatherDisplay:10.37,2013-02-19 15:29:00,
2013-02-19 10:34:00,74.9,60.5,30.15,SE,146,26.5,26.5,61,0.00,,OVC,0.00,WeatherDisplay:10.37,2013-02-19 15:34:00,
2013-02-19 10:39:00,74.9,60.1,30.15,SE,128,20.7,20.7,60,0.00,,OVC,0.00,WeatherDisplay:10.37,2013-02-19 15:39:00,
2013-02-19 10:44:00,75.4,60.5,30.15,ESE,114,30.0,30.0,60,0.00,,OVC,0.00,WeatherDisplay:10.37,2013-02-19 15:44:00,
2013-02-19 10:49:00,75.3,60.5,30.15,ESE,117,38.0,38.0,60,0.00,,OVC,0.00,WeatherDisplay:10.37,2013-02-19 15:49:00,
2013-02-19 10:54:00,75.1,60.3,30.15,SE,144,19.6,19.6,60,0.00,,OVC,0.00,WeatherDisplay:10.37,2013-02-19 15:54:00,
2013-02-19 10:59:00,75.4,60.5,30.15,ESE,114,28.8,28.8,60,0.00,,OVC,0.00,WeatherDisplay:10.37,2013-02-19 15:59:00,
2013-02-19 11:04:00,75.8,60.9,30.15,SE,126,23.0,23.0,60,0.00,,OVC,0.00,WeatherDisplay:10.37,2013-02-19 16:04:00,
2013-02-19 11:09:00,75.6,60.3,30.15,SE,135,19.6,19.6,59,0.00,,OVC,0.00,WeatherDisplay:10.37,2013-02-19 16:09:00,
2013-02-19 11:14:00,75.8,61.4,30.15,SE,124,10.4,10.4,61,0.00,,OVC,0.00,WeatherDisplay:10.37,2013-02-19 16:14:00,
2013-02-19 11:19:00,76.3,61.9,30.15,SE,146,9.2,9.2,61,0.00,,OVC,0.00,WeatherDisplay:10.37,2013-02-19 16:19:00,
2013-02-19 11:24:00,75.6,61.2,30.15,NE,45,11.5,11.5,61,0.00,,OVC,0.00,WeatherDisplay:10.37,2013-02-19 16:24:00,
2013-02-19 11:29:00,75.1,60.7,30.15,ESE,118,34.5,34.5,61,0.00,,OVC,0.00,WeatherDisplay:10.37,2013-02-19 16:29:00,
2013-02-19 11:34:00,74.7,60.4,30.15,SSE,148,19.6,19.6,61,0.00,,OVC,0.00,WeatherDisplay:10.37,2013-02-19 16:34:00,
2013-02-19 11:39:00,74.2,60.8,30.15,SSE,148,21.9,21.9,63,0.00,,OVC,0.00,WeatherDisplay:10.37,2013-02-19 16:39:00,
2013-02-19 11:44:00,74.2,61.2,30.15,SE,145,21.9,21.9,64,0.00,,OVC,0.00,WeatherDisplay:10.37,2013-02-19 16:44:00,
2013-02-19 11:49:00,74.2,61.2,30.15,SE,142,24.2,24.2,64,0.00,,OVC,0.00,WeatherDisplay:10.37,2013-02-19 16:49:00,
2013-02-19 11:54:00,74.7,61.3,30.15,SE,146,23.0,23.0,63,0.00,,OVC,0.00,WeatherDisplay:10.37,2013-02-19 16:54:00,
2013-02-19 11:59:00,74.6,61.6,30.14,South,176,12.7,12.7,64,0.00,,OVC,0.00,WeatherDisplay:10.37,2013-02-19 16:59:00,
2013-02-19 12:04:00,74.7,61.7,30.14,SSE,153,12.7,12.7,64,0.00,,OVC,0.00,WeatherDisplay:10.37,2013-02-19 17:04:00,
2013-02-19 12:09:00,75.1,62.1,30.14,SSE,155,17.0,17.0,64,0.00,,OVC,0.00,WeatherDisplay:10.37,2013-02-19 17:09:00,
2013-02-19 12:14:00,74.9,61.5,30.14,SSE,159,20.7,20.7,63,0.00,,OVC,0.00,WeatherDisplay:10.37,2013-02-19 17:14:00,
2013-02-19 12:19:00,75.1,62.1,30.14,SSE,150,16.1,16.1,64,0.00,,OVC,0.00,WeatherDisplay:10.37,2013-02-19 17:19:00,
2013-02-19 12:24:00,75.8,62.3,30.14,SE,131,13.8,13.8,63,0.00,,OVC,0.00,WeatherDisplay:10.37,2013-02-19 17:24:00,
2013-02-19 12:29:00,76.5,63.0,30.13,SSE,161,24.2,24.2,63,0.00,,OVC,0.00,WeatherDisplay:10.37,2013-02-19 17:29:00,
2013-02-19 12:34:00,76.5,62.0,30.13,SE,140,26.5,26.5,61,0.00,,OVC,0.00,WeatherDisplay:10.37,2013-02-19 17:34:00,
2013-02-19 12:39:00,76.3,62.3,30.13,SE,146,25.3,25.3,62,0.00,,OVC,0.00,WeatherDisplay:10.37,2013-02-19 17:39:00,
2013-02-19 12:44:00,76.0,61.6,30.13,SSE,161,33.4,33.4,61,0.00,,OVC,0.00,WeatherDisplay:10.37,2013-02-19 17:44:00,
2013-02-19 12:49:00,76.3,61.9,30.13,SSE,162,17.3,17.3,61,0.00,,OVC,0.00,WeatherDisplay:10.37,2013-02-19 17:49:00,
2013-02-19 12:54:00,76.8,62.3,30.13,SE,145,20.7,20.7,61,0.00,,OVC,0.00,WeatherDisplay:10.37,2013-02-19 17:54:00,
2013-02-19 12:59:00,77.2,63.2,30.12,NE,42,17.3,17.3,62,0.00,,OVC,0.00,WeatherDisplay:10.37,2013-02-19 17:59:00,
2013-02-19 13:04:00,76.7,62.7,30.12,SE,134,26.5,26.5,62,0.00,,OVC,0.00,WeatherDisplay:10.37,2013-02-19 18:04:00,
2013-02-19 13:09:00,76.1,62.1,30.12,SSE,167,19.6,19.6,62,0.00,,OVC,0.00,WeatherDisplay:10.37,2013-02-19 18:09:00,
2013-02-19 13:14:00,75.4,62.4,30.12,SE,142,27.6,27.6,64,0.00,,OVC,0.00,WeatherDisplay:10.37,2013-02-19 18:14:00,
2013-02-19 13:19:00,75.3,62.3,30.12,SE,136,26.5,26.5,64,0.00,,OVC,0.00,WeatherDisplay:10.37,2013-02-19 18:19:00,
2013-02-19 13:24:00,74.7,62.1,30.12,SSE,148,13.8,13.8,65,0.00,,OVC,0.00,WeatherDisplay:10.37,2013-02-19 18:24:00,
2013-02-19 13:29:00,75.1,62.1,30.11,SSE,165,26.5,26.5,64,0.00,,OVC,0.00,WeatherDisplay:10.37,2013-02-19 18:29:00,
2013-02-19 13:34:00,75.1,62.5,30.11,ESE,117,23.0,23.0,65,0.00,,OVC,0.00,WeatherDisplay:10.37,2013-02-19 18:34:00,
2013-02-19 13:39:00,75.8,62.8,30.11,SE,124,25.3,25.3,64,0.00,,OVC,0.00,WeatherDisplay:10.37,2013-02-19 18:39:00,
2013-02-19 13:44:00,75.8,62.8,30.10,SE,128,9.2,9.2,64,0.00,,OVC,0.00,WeatherDisplay:10.37,2013-02-19 18:44:00,
2013-02-19 13:49:00,75.6,62.6,30.10,SE,131,19.6,19.6,64,0.00,,OVC,0.00,WeatherDisplay:10.37,2013-02-19 18:49:00,
2013-02-19 13:54:00,75.4,62.4,30.10,East,98,19.6,19.6,64,0.00,,OVC,0.00,WeatherDisplay:10.37,2013-02-19 18:54:00,
2013-02-19 13:59:00,75.1,62.5,30.10,SE,142,19.6,19.6,65,0.00,,OVC,0.00,WeatherDisplay:10.37,2013-02-19 18:59:00,
2013-02-19 14:04:00,75.1,62.5,30.10,SE,127,34.5,34.5,65,0.00,,OVC,0.00,WeatherDisplay:10.37,2013-02-19 19:04:00,
2013-02-19 14:09:00,75.3,62.7,30.10,SE,144,26.5,26.5,65,0.00,,OVC,0.00,WeatherDisplay:10.37,2013-02-19 19:09:00,
2013-02-19 14:14:00,75.4,62.8,30.09,SE,130,26.5,26.5,65,0.00,,OVC,0.00,WeatherDisplay:10.37,2013-02-19 19:14:00,
2013-02-19 14:19:00,76.0,65.1,30.09,SE,138,21.9,21.9,69,0.00,,OVC,0.00,WeatherDisplay:10.37,2013-02-19 19:19:00,
2013-02-19 14:25:00,76.1,63.5,30.09,SE,135,20.7,20.7,65,0.00,,OVC,0.00,WeatherDisplay:10.37,2013-02-19 19:25:00,
2013-02-19 14:30:00,76.7,63.6,30.08,South,178,33.4,33.4,64,0.00,,OVC,0.00,WeatherDisplay:10.37,2013-02-19 19:30:00,
2013-02-19 14:35:00,76.8,63.2,30.08,SE,132,20.7,20.7,63,0.00,,OVC,0.00,WeatherDisplay:10.37,2013-02-19 19:35:00,
2013-02-19 14:40:00,76.7,63.2,30.08,SE,136,18.4,18.4,63,0.00,,OVC,0.00,WeatherDisplay:10.37,2013-02-19 19:40:00,
2013-02-19 14:45:00,76.5,63.4,30.08,NNE,17,3.5,3.5,64,0.00,,OVC,0.00,WeatherDisplay:10.37,2013-02-19 19:45:00,
2013-02-19 14:50:00,76.7,63.6,30.08,SE,140,10.4,10.4,64,0.00,,OVC,0.00,WeatherDisplay:10.37,2013-02-19 19:50:00,
2013-02-19 14:55:00,76.7,63.2,30.08,SE,146,16.1,16.1,63,0.00,,OVC,0.00,WeatherDisplay:10.37,2013-02-19 19:55:00,
2013-02-19 15:00:00,77.2,63.6,30.07,SE,132,21.9,21.9,63,0.00,,OVC,0.00,WeatherDisplay:10.37,2013-02-19 20:00:00,
2013-02-19 15:05:00,77.4,63.4,30.07,ESE,121,11.5,11.5,62,0.00,,OVC,0.00,WeatherDisplay:10.37,2013-02-19 20:05:00,
2013-02-19 15:10:00,77.7,63.6,30.07,SE,137,28.0,28.0,62,0.00,,OVC,0.00,WeatherDisplay:10.37,2013-02-19 20:10:00,
2013-02-19 15:15:00,76.8,62.8,30.07,SE,142,23.0,23.0,62,0.00,,OVC,0.00,WeatherDisplay:10.37,2013-02-19 20:15:00,
2013-02-19 15:20:00,76.1,63.0,30.07,SSE,161,19.0,19.0,64,0.00,,OVC,0.00,WeatherDisplay:10.37,2013-02-19 20:20:00,
2013-02-19 15:25:00,75.8,63.2,30.07,South,171,26.5,26.5,65,0.00,,OVC,0.00,WeatherDisplay:10.37,2013-02-19 20:25:00,
2013-02-19 15:30:00,75.8,63.6,30.07,SSE,160,26.5,26.5,66,0.00,,OVC,0.00,WeatherDisplay:10.37,2013-02-19 20:30:00,
2013-02-19 15:35:00,75.6,63.4,30.07,SSW,193,19.6,19.6,66,0.00,,OVC,0.00,WeatherDisplay:10.37,2013-02-19 20:35:00,
2013-02-19 15:40:00,75.4,63.7,30.07,ESE,121,24.2,24.2,67,0.00,,OVC,0.00,WeatherDisplay:10.37,2013-02-19 20:40:00,
2013-02-19 15:45:00,75.8,63.6,30.07,SE,141,11.5,11.5,66,0.00,,OVC,0.00,WeatherDisplay:10.37,2013-02-19 20:45:00,
2013-02-19 15:50:00,76.3,64.1,30.07,SE,142,12.0,12.0,66,0.00,,OVC,0.00,WeatherDisplay:10.37,2013-02-19 20:50:00,
2013-02-19 15:55:00,75.8,63.2,30.07,South,176,23.0,23.0,65,0.00,,OVC,0.00,WeatherDisplay:10.37,2013-02-19 20:55:00,
2013-02-19 16:00:00,75.1,63.0,30.07,SSE,162,19.6,19.6,66,0.00,,OVC,0.00,WeatherDisplay:10.37,2013-02-19 21:00:00,
2013-02-19 16:05:00,74.7,63.0,30.07,SSE,157,23.0,23.0,67,0.00,,OVC,0.00,WeatherDisplay:10.37,2013-02-19 21:05:00,
2013-02-19 16:10:00,74.7,63.9,30.07,SSE,156,20.7,20.7,69,0.00,,OVC,0.00,WeatherDisplay:10.37,2013-02-19 21:10:00,
2013-02-19 16:15:00,75.3,64.0,30.06,SE,137,17.3,17.3,68,0.00,,OVC,0.00,WeatherDisplay:10.37,2013-02-19 21:15:00,
2013-02-19 16:20:00,75.4,63.7,30.06,SSE,154,24.2,24.2,67,0.00,,OVC,0.00,WeatherDisplay:10.37,2013-02-19 21:20:00,
2013-02-19 16:25:00,75.4,64.1,30.06,SE,144,29.9,29.9,68,0.00,,OVC,0.00,WeatherDisplay:10.37,2013-02-19 21:25:00,
2013-02-19 16:30:00,75.6,63.9,30.06,SSE,148,13.8,13.8,67,0.00,,OVC,0.00,WeatherDisplay:10.37,2013-02-19 21:30:00,
2013-02-19 16:35:00,75.6,64.3,30.06,SSE,147,25.3,25.3,68,0.00,,OVC,0.00,WeatherDisplay:10.37,2013-02-19 21:35:00,
2013-02-19 16:40:00,75.8,64.5,30.06,SSE,153,17.3,17.3,68,0.00,,OVC,0.00,WeatherDisplay:10.37,2013-02-19 21:40:00,
2013-02-19 16:45:00,75.3,64.4,30.06,SSE,157,17.0,17.0,69,0.00,,OVC,0.00,WeatherDisplay:10.37,2013-02-19 21:45:00,
2013-02-19 16:50:00,74.9,64.5,30.06,SSE,148,11.5,11.5,70,0.00,,OVC,0.00,WeatherDisplay:10.37,2013-02-19 21:50:00,
2013-02-19 16:55:00,74.6,63.8,30.06,SSE,163,26.5,26.5,69,0.00,,OVC,0.00,WeatherDisplay:10.37,2013-02-19 21:55:00,
2013-02-19 17:00:00,74.2,63.8,30.06,SSE,152,25.3,25.3,70,0.00,,OVC,0.00,WeatherDisplay:10.37,2013-02-19 22:00:00,
2013-02-19 17:05:00,74.2,64.2,30.06,SE,146,23.0,23.0,71,0.00,,OVC,0.00,WeatherDisplay:10.37,2013-02-19 22:05:00,
2013-02-19 17:10:00,74.2,64.2,30.06,SSE,156,28.8,28.8,71,0.00,,OVC,0.00,WeatherDisplay:10.37,2013-02-19 22:10:00,
2013-02-19 17:15:00,74.2,64.2,30.06,SE,146,11.5,11.5,71,0.00,,OVC,0.00,WeatherDisplay:10.37,2013-02-19 22:15:00,
2013-02-19 17:20:00,74.2,64.2,30.06,SE,140,12.7,12.7,71,0.00,,OVC,0.00,WeatherDisplay:10.37,2013-02-19 22:20:00,
2013-02-19 17:25:00,74.0,64.0,30.06,SE,142,19.6,19.6,71,0.00,,OVC,0.00,WeatherDisplay:10.37,2013-02-19 22:25:00,
2013-02-19 17:30:00,73.9,63.9,30.06,SSE,164,24.2,24.2,71,0.00,,OVC,0.00,WeatherDisplay:10.37,2013-02-19 22:30:00,
2013-02-19 17:35:00,73.7,64.1,30.06,South,171,19.6,19.6,72,0.00,,OVC,0.00,WeatherDisplay:10.37,2013-02-19 22:35:00,
2013-02-19 17:40:00,73.5,63.9,30.06,SSE,149,16.1,16.1,72,0.00,,OVC,0.00,WeatherDisplay:10.37,2013-02-19 22:40:00,
2013-02-19 17:45:00,73.3,64.1,30.06,SSE,149,17.3,17.3,73,0.00,,OVC,0.00,WeatherDisplay:10.37,2013-02-19 22:45:00,
2013-02-19 17:50:00,73.2,64.0,30.06,SSE,153,16.0,16.0,73,0.00,,OVC,0.00,WeatherDisplay:10.37,2013-02-19 22:50:00,
2013-02-19 17:55:00,73.2,64.0,30.06,SE,136,9.2,9.2,73,0.00,,OVC,0.00,WeatherDisplay:10.37,2013-02-19 22:55:00,
2013-02-19 18:00:00,73.2,64.0,30.06,SE,146,11.5,11.5,73,0.00,,OVC,0.00,WeatherDisplay:10.37,2013-02-19 23:00:00,
2013-02-19 18:05:00,73.0,63.8,30.06,SSE,157,5.8,5.8,73,0.00,,OVC,0.00,WeatherDisplay:10.37,2013-02-19 23:05:00,
2013-02-19 18:10:00,72.8,63.6,30.06,SSE,151,18.4,18.4,73,0.00,,OVC,0.00,WeatherDisplay:10.37,2013-02-19 23:10:00,
2013-02-19 18:15:00,72.8,64.0,30.07,SSE,156,12.0,12.0,74,0.00,,OVC,0.00,WeatherDisplay:10.37,2013-02-19 23:15:00,
2013-02-19 18:20:00,72.7,63.9,30.07,South,172,11.5,11.5,74,0.00,,OVC,0.00,WeatherDisplay:10.37,2013-02-19 23:20:00,
2013-02-19 18:25:00,72.7,63.9,30.07,SSE,151,12.7,12.7,74,0.00,,OVC,0.00,WeatherDisplay:10.37,2013-02-19 23:25:00,
2013-02-19 18:30:00,72.5,64.1,30.07,SSE,163,11.5,11.5,75,0.00,,OVC,0.00,WeatherDisplay:10.37,2013-02-19 23:30:00,
2013-02-19 18:35:00,72.3,63.9,30.07,SSE,147,17.3,17.3,75,0.00,,OVC,0.00,WeatherDisplay:10.37,2013-02-19 23:35:00,
2013-02-19 18:40:00,72.3,63.9,30.07,SSE,159,19.0,19.0,75,0.00,,OVC,0.00,WeatherDisplay:10.37,2013-02-19 23:40:00,
2013-02-19 18:45:00,72.3,64.3,30.07,SSE,153,10.4,10.4,76,0.00,,OVC,0.00,WeatherDisplay:10.37,2013-02-19 23:45:00,
2013-02-19 18:50:00,72.3,64.3,30.07,South,173,23.0,23.0,76,0.00,,OVC,0.00,WeatherDisplay:10.37,2013-02-19 23:50:00,
2013-02-19 18:55:00,72.3,64.3,30.07,SE,146,10.4,10.4,76,0.00,,OVC,0.00,WeatherDisplay:10.37,2013-02-19 23:55:00,
2013-02-19 19:00:00,72.3,64.3,30.08,SE,146,12.7,12.7,76,0.00,,OVC,0.00,WeatherDisplay:10.37,2013-02-20 00:00:00,
2013-02-19 19:05:00,72.3,64.3,30.08,SE,138,14.0,14.0,76,0.00,,OVC,0.00,WeatherDisplay:10.37,2013-02-20 00:05:00,
2013-02-19 19:10:00,72.3,64.7,30.08,SSE,147,8.1,8.1,77,0.00,,OVC,0.00,WeatherDisplay:10.37,2013-02-20 00:10:00,
2013-02-19 19:15:00,72.3,64.7,30.08,SE,140,10.4,10.4,77,0.00,,OVC,0.00,WeatherDisplay:10.37,2013-02-20 00:15:00,
2013-02-19 19:20:00,72.3,64.7,30.08,SE,143,11.5,11.5,77,0.00,,OVC,0.00,WeatherDisplay:10.37,2013-02-20 00:20:00,
2013-02-19 19:25:00,72.3,64.7,30.08,SE,132,11.5,11.5,77,0.00,,OVC,0.00,WeatherDisplay:10.37,2013-02-20 00:25:00,
2013-02-19 19:31:00,72.3,64.7,30.08,SE,143,11.5,11.5,77,0.00,,OVC,0.00,WeatherDisplay:10.37,2013-02-20 00:31:00,
2013-02-19 19:36:00,72.3,64.7,30.08,SE,142,6.9,0.0,77,0.00,,OVC,0.00,WeatherDisplay:10.37,2013-02-20 00:36:00,
2013-02-19 19:41:00,72.1,64.9,30.08,SE,143,1.2,2.3,78,0.00,,OVC,0.00,WeatherDisplay:10.37,2013-02-20 00:41:00,
2013-02-19 19:46:00,72.1,64.9,30.08,SE,143,0.0,0.0,78,0.00,,OVC,0.00,WeatherDisplay:10.37,2013-02-20 00:46:00,
2013-02-19 19:51:00,72.1,64.9,30.08,SE,143,0.0,0.0,78,0.00,,OVC,0.00,WeatherDisplay:10.37,2013-02-20 00:51:00,
2013-02-19 19:56:00,72.1,64.9,30.08,SE,143,0.0,0.0,78,0.00,,OVC,0.00,WeatherDisplay:10.37,2013-02-20 00:56:00,
2013-02-19 20:01:00,72.1,64.9,30.09,SE,143,0.0,0.0,78,0.00,,OVC,0.00,WeatherDisplay:10.37,2013-02-20 01:01:00,
2013-02-19 20:06:00,72.0,64.8,30.09,SE,144,0.0,0.0,78,0.00,,OVC,0.00,WeatherDisplay:10.37,2013-02-20 01:06:00,
2013-02-19 20:11:00,72.0,65.1,30.09,SE,144,5.8,5.8,79,0.00,,OVC,0.00,WeatherDisplay:10.37,2013-02-20 01:11:00,
2013-02-19 20:16:00,72.0,65.1,30.09,SE,144,0.0,0.0,79,0.00,,OVC,0.00,WeatherDisplay:10.37,2013-02-20 01:16:00,
2013-02-19 20:21:00,71.8,64.9,30.09,SE,144,0.0,0.0,79,0.00,,OVC,0.00,WeatherDisplay:10.37,2013-02-20 01:21:00,
2013-02-19 20:26:00,71.8,64.9,30.09,South,171,11.5,11.5,79,0.00,,OVC,0.00,WeatherDisplay:10.37,2013-02-20 01:26:00,
2013-02-19 20:31:00,71.8,65.3,30.10,SSW,207,0.0,0.0,80,0.00,,OVC,0.00,WeatherDisplay:10.37,2013-02-20 01:31:00,
2013-02-19 20:36:00,71.6,65.5,30.10,SSW,193,0.0,0.0,81,0.00,,OVC,0.00,WeatherDisplay:10.37,2013-02-20 01:36:00,
2013-02-19 20:41:00,71.5,65.7,30.10,SSW,194,0.0,0.0,82,0.00,,OVC,0.00,WeatherDisplay:10.37,2013-02-20 01:41:00,
2013-02-19 20:46:00,71.3,65.9,30.09,SSW,194,0.0,0.0,83,0.00,,OVC,0.00,WeatherDisplay:10.37,2013-02-20 01:46:00,
2013-02-19 20:51:00,71.1,65.7,30.09,SSW,194,0.0,0.0,83,0.00,,OVC,0.00,WeatherDisplay:10.37,2013-02-20 01:51:00,
2013-02-19 20:56:00,71.1,66.0,30.09,SSW,192,0.0,0.0,84,0.00,,OVC,0.00,WeatherDisplay:10.37,2013-02-20 01:56:00,
2013-02-19 21:01:00,71.1,66.0,30.09,SSW,192,0.0,0.0,84,0.00,,OVC,0.00,WeatherDisplay:10.37,2013-02-20 02:01:00,
2013-02-19 21:06:00,71.1,66.0,30.09,SSW,192,0.0,0.0,84,0.00,,OVC,0.00,WeatherDisplay:10.37,2013-02-20 02:06:00,
2013-02-19 21:11:00,71.1,65.7,30.09,South,188,0.0,0.0,83,0.00,,OVC,0.00,WeatherDisplay:10.37,2013-02-20 02:11:00,
2013-02-19 21:16:00,71.1,65.7,30.09,SSE,153,0.0,0.0,83,0.00,,OVC,0.00,WeatherDisplay:10.37,2013-02-20 02:16:00,
2013-02-19 21:21:00,71.3,65.9,30.09,SSE,151,3.0,3.0,83,0.00,,OVC,0.00,WeatherDisplay:10.37,2013-02-20 02:21:00,
2013-02-19 21:26:00,71.3,65.5,30.09,SSE,151,0.0,0.0,82,0.00,,OVC,0.00,WeatherDisplay:10.37,2013-02-20 02:26:00,
2013-02-19 21:31:00,71.3,65.5,30.10,SSE,152,0.0,0.0,82,0.00,,OVC,0.00,WeatherDisplay:10.37,2013-02-20 02:31:00,
2013-02-19 21:36:00,71.5,65.7,30.10,SSE,152,0.0,0.0,82,0.00,,OVC,0.00,WeatherDisplay:10.37,2013-02-20 02:36:00,
2013-02-19 21:41:00,71.3,65.5,30.10,SSE,152,0.0,0.0,82,0.00,,OVC,0.00,WeatherDisplay:10.37,2013-02-20 02:41:00,
2013-02-19 21:46:00,71.3,65.9,30.10,West,279,0.0,0.0,83,0.00,,OVC,0.00,WeatherDisplay:10.37,2013-02-20 02:46:00,
2013-02-19 21:51:00,71.1,66.0,30.10,West,279,0.0,0.0,84,0.00,,OVC,0.00,WeatherDisplay:10.37,2013-02-20 02:51:00,
2013-02-19 21:56:00,71.1,66.0,30.10,West,279,0.0,0.0,84,0.00,,OVC,0.00,WeatherDisplay:10.37,2013-02-20 02:56:00,
2013-02-19 22:01:00,71.1,66.4,30.09,West,279,0.0,0.0,85,0.00,,OVC,0.00,WeatherDisplay:10.37,2013-02-20 03:01:00,
2013-02-19 22:06:00,70.9,66.2,30.09,West,279,0.0,0.0,85,0.00,,OVC,0.00,WeatherDisplay:10.37,2013-02-20 03:06:00,
2013-02-19 22:11:00,70.9,66.2,30.09,West,279,0.0,0.0,85,0.00,,OVC,0.00,WeatherDisplay:10.37,2013-02-20 03:11:00,
2013-02-19 22:16:00,70.6,65.9,30.09,West,269,6.9,6.9,85,0.00,,OVC,0.00,WeatherDisplay:10.37,2013-02-20 03:16:00,
2013-02-19 22:21:00,70.4,66.0,30.09,West,269,0.0,0.0,86,0.00,,OVC,0.00,WeatherDisplay:10.37,2013-02-20 03:21:00,
2013-02-19 22:26:00,70.4,66.0,30.09,West,270,0.0,0.0,86,0.00,,OVC,0.00,WeatherDisplay:10.37,2013-02-20 03:26:00,
2013-02-19 22:31:00,70.3,66.2,30.09,West,270,0.0,0.0,87,0.00,,OVC,0.00,WeatherDisplay:10.37,2013-02-20 03:31:00,
2013-02-19 22:36:00,69.9,65.9,30.09,WSW,245,13.0,13.0,87,0.00,,OVC,0.00,WeatherDisplay:10.37,2013-02-20 03:36:00,
2013-02-19 22:41:00,69.8,66.1,30.09,West,268,12.7,12.7,88,0.00,,OVC,0.00,WeatherDisplay:10.37,2013-02-20 03:41:00,
2013-02-19 22:46:00,69.4,66.0,30.09,NW,304,13.8,13.8,89,0.01,RA,OVC,0.01,WeatherDisplay:10.37,2013-02-20 03:46:00,
2013-02-19 22:51:00,69.3,65.9,30.09,WNW,290,11.5,11.5,89,0.01,RA,OVC,0.01,WeatherDisplay:10.37,2013-02-20 03:51:00,
2013-02-19 22:56:00,68.9,65.5,30.09,WNW,287,0.0,0.5,89,0.01,,OVC,0.01,WeatherDisplay:10.37,2013-02-20 03:56:00,
2013-02-19 23:01:00,68.9,65.8,30.09,WNW,298,5.8,5.8,90,0.02,RA,OVC,0.02,WeatherDisplay:10.37,2013-02-20 04:01:00,
2013-02-19 23:06:00,68.8,65.7,30.09,NW,309,3.5,3.5,90,0.02,RA,OVC,0.02,WeatherDisplay:10.37,2013-02-20 04:06:00,
2013-02-19 23:11:00,68.8,66.1,30.09,NW,311,4.6,4.6,91,0.02,,OVC,0.02,WeatherDisplay:10.37,2013-02-20 04:11:00,
2013-02-19 23:16:00,68.6,65.9,30.08,NW,311,0.0,0.0,91,0.02,,OVC,0.02,WeatherDisplay:10.37,2013-02-20 04:16:00,
2013-02-19 23:21:00,68.6,65.9,30.08,NW,311,0.0,0.0,91,0.02,,OVC,0.02,WeatherDisplay:10.37,2013-02-20 04:21:00,
2013-02-19 23:26:00,68.4,65.7,30.08,NW,311,0.0,0.0,91,0.02,,OVC,0.02,WeatherDisplay:10.37,2013-02-20 04:26:00,
2013-02-19 23:31:00,68.4,66.0,30.07,NW,311,0.0,0.0,92,0.02,,OVC,0.02,WeatherDisplay:10.37,2013-02-20 04:31:00,
2013-02-19 23:36:00,68.4,66.0,30.07,NW,311,0.0,0.0,92,0.02,,OVC,0.02,WeatherDisplay:10.37,2013-02-20 04:36:00,
2013-02-19 23:41:00,68.4,66.0,30.07,NW,312,0.0,0.0,92,0.02,,OVC,0.02,WeatherDisplay:10.37,2013-02-20 04:41:00,
2013-02-19 23:46:00,68.4,66.0,30.07,NW,312,0.0,0.0,92,0.01,,OVC,0.02,WeatherDisplay:10.37,2013-02-20 04:46:00,
2013-02-19 23:51:00,68.3,65.9,30.07,NW,315,10.0,10.0,92,0.01,,OVC,0.02,WeatherDisplay:10.37,2013-02-20 04:51:00,
2013-02-19 23:56:00,68.1,65.7,30.07,NNW,330,8.1,8.1,92,0.01,,OVC,0.02,WeatherDisplay:10.37,2013-02-20 04:56:00,